Time;durP1;ratioP1;P1;durP2;ratioP2;P2;SDS_P1;SDS_P2;PMS_P1;PMS_P2;Temp;Humidity;BMP_temperature;BMP_pressure;BME280_temperature;BME280_humidity;BME280_pressure;Samples;Min_cycle;Max_cycle;Signal;HPM_P1;HPM_P2
2022/09/28 00:01:44;;;;;;;0.60;0.60;;;9.60;99.90;;;;;;5103717;28;20228;-48
2022/09/28 00:04:12;;;;;;;0.93;0.60;;;9.60;99.90;;;;;;5095685;28;20282;-48
2022/09/28 00:06:39;;;;;;;0.87;0.87;;;9.70;99.90;;;;;;5088525;28;20238;-50
2022/09/28 00:09:06;;;;;;;0.50;0.50;;;9.80;99.90;;;;;;5091561;28;20223;-49
2022/09/28 00:11:33;;;;;;;0.87;0.60;;;9.60;99.90;;;;;;5091397;28;20202;-51
2022/09/28 00:14:02;;;;;;;0.60;0.60;;;9.80;99.90;;;;;;5092003;28;20267;-49
2022/09/28 00:16:33;;;;;;;0.90;0.73;;;9.80;99.90;;;;;;5088135;28;20584;-49
2022/09/28 00:19:00;;;;;;;0.53;0.53;;;9.80;99.90;;;;;;5086637;28;20226;-49
2022/09/28 00:21:29;;;;;;;0.87;0.87;;;9.90;99.90;;;;;;5086943;28;20212;-49
2022/09/28 00:24:13;;;;;;;1.23;0.77;;;9.80;99.90;;;;;;5091153;28;20607;-49
2022/09/28 00:26:44;;;;;;;1.17;1.13;;;9.60;99.90;;;;;;5089081;28;20711;-49
2022/09/28 00:29:23;;;;;;;1.80;1.40;;;9.60;99.90;;;;;;5091775;28;20236;-48
2022/09/28 00:31:58;;;;;;;1.17;1.17;;;9.50;99.90;;;;;;5089826;28;20215;-48
2022/09/28 00:34:26;;;;;;;0.90;0.90;;;9.50;99.90;;;;;;5086660;28;20736;-48
2022/09/28 00:36:53;;;;;;;0.73;0.73;;;9.60;99.90;;;;;;5085482;28;20225;-49
2022/09/28 00:39:20;;;;;;;0.70;0.70;;;9.60;99.90;;;;;;5090651;28;20227;-48
2022/09/28 00:41:47;;;;;;;1.80;0.77;;;9.50;99.90;;;;;;5091719;28;20198;-49
2022/09/28 00:44:37;;;;;;;1.47;0.60;;;9.40;99.90;;;;;;5091526;28;20206;-49
2022/09/28 00:47:23;;;;;;;1.07;0.50;;;9.50;99.90;;;;;;5085265;28;20218;-49
2022/09/28 00:49:55;;;;;;;0.60;0.60;;;9.40;99.90;;;;;;5069084;28;20226;-48
2022/09/28 00:52:26;;;;;;;1.40;1.40;;;9.40;99.90;;;;;;5091649;28;20252;-48
2022/09/28 00:54:56;;;;;;;1.70;1.63;;;9.40;99.90;;;;;;5091678;28;20202;-48
2022/09/28 00:57:23;;;;;;;3.33;1.83;;;9.40;99.90;;;;;;5089509;28;20248;-49
2022/09/28 00:59:52;;;;;;;3.43;1.70;;;9.30;99.90;;;;;;5091650;28;20267;-49
2022/09/28 01:02:21;;;;;;;2.30;1.77;;;9.30;99.90;;;;;;5091862;28;20202;-51
2022/09/28 01:04:49;;;;;;;6.53;2.60;;;9.30;99.90;;;;;;5090265;28;20203;-49
2022/09/28 01:07:17;;;;;;;1.97;1.87;;;9.30;99.90;;;;;;5093705;28;20740;-49
2022/09/28 01:09:45;;;;;;;2.60;2.47;;;9.30;99.90;;;;;;5091007;28;20251;-49
2022/09/28 01:12:12;;;;;;;1.77;1.70;;;9.20;99.90;;;;;;5095366;28;20277;-50
2022/09/28 01:14:41;;;;;;;1.47;1.47;;;9.30;99.90;;;;;;5095130;28;20285;-48
2022/09/28 01:17:14;;;;;;;1.37;1.37;;;9.20;99.90;;;;;;5094203;28;20199;-48
2022/09/28 01:20:05;;;;;;;2.00;1.90;;;9.30;99.90;;;;;;5088658;28;20643;-49
2022/09/28 01:22:56;;;;;;;2.23;2.03;;;9.30;99.90;;;;;;5095053;28;20684;-49
2022/09/28 01:25:31;;;;;;;2.90;2.70;;;9.30;99.90;;;;;;5094806;28;20675;-49
2022/09/28 01:28:04;;;;;;;2.33;2.23;;;9.30;99.90;;;;;;5090267;28;20656;-49
2022/09/28 01:30:39;;;;;;;2.30;2.20;;;9.20;99.90;;;;;;5091448;28;20207;-49
2022/09/28 01:33:11;;;;;;;2.10;2.00;;;9.20;99.90;;;;;;5086800;28;20560;-48
2022/09/28 01:35:44;;;;;;;1.40;1.40;;;9.20;99.90;;;;;;5091094;28;20208;-49
2022/09/28 01:38:16;;;;;;;1.60;1.60;;;9.20;99.90;;;;;;5093217;28;20198;-49
2022/09/28 01:40:44;;;;;;;1.60;1.50;;;9.30;99.90;;;;;;5094586;28;20198;-49
2022/09/28 01:43:17;;;;;;;2.00;1.70;;;9.40;99.90;;;;;;5092707;28;20262;-49
2022/09/28 01:45:47;;;;;;;2.10;1.97;;;9.40;99.90;;;;;;5094536;28;20653;-49
2022/09/28 01:48:31;;;;;;;2.17;2.07;;;9.40;99.90;;;;;;5092968;28;20833;-49
2022/09/28 01:51:01;;;;;;;1.70;1.70;;;9.40;99.90;;;;;;5087579;28;20192;-48
2022/09/28 01:53:35;;;;;;;2.10;1.90;;;9.40;99.90;;;;;;5089599;28;20203;-49
2022/09/28 01:56:06;;;;;;;1.73;1.63;;;9.40;99.90;;;;;;5090366;28;20242;-48
2022/09/28 01:58:38;;;;;;;1.60;1.50;;;9.40;99.90;;;;;;5087733;28;20362;-49
2022/09/28 02:01:16;;;;;;;9.90;2.07;;;9.40;99.90;;;;;;5081849;28;20253;-48
2022/09/28 02:03:48;;;;;;;1.73;1.63;;;9.50;99.90;;;;;;5092737;28;20203;-48
2022/09/28 02:06:19;;;;;;;1.87;1.40;;;9.50;99.90;;;;;;5093800;28;20723;-48
2022/09/28 02:08:52;;;;;;;2.50;2.00;;;9.40;99.90;;;;;;5088698;28;20218;-49
2022/09/28 02:11:22;;;;;;;1.90;1.80;;;9.50;99.90;;;;;;5094052;28;20195;-48
2022/09/28 02:13:54;;;;;;;2.73;1.73;;;9.50;99.90;;;;;;5088891;28;20195;-48
2022/09/28 02:16:30;;;;;;;2.27;1.90;;;9.50;99.90;;;;;;5090500;28;20231;-49
2022/09/28 02:18:57;;;;;;;8.30;1.80;;;9.40;99.90;;;;;;5092464;28;20227;-49
2022/09/28 02:21:29;;;;;;;1.77;1.67;;;9.40;99.90;;;;;;5092034;28;20250;-47
2022/09/28 02:24:02;;;;;;;4.23;1.20;;;9.50;99.90;;;;;;5088683;28;20211;-49
2022/09/28 02:26:34;;;;;;;1.37;1.37;;;9.50;99.90;;;;;;5093438;28;20199;-49
2022/09/28 02:29:03;;;;;;;0.97;0.93;;;9.50;99.90;;;;;;5081342;28;20242;-48
2022/09/28 02:31:31;;;;;;;1.93;1.00;;;9.50;99.90;;;;;;5088980;28;20198;-50
2022/09/28 02:33:58;;;;;;;0.80;0.80;;;9.40;99.90;;;;;;5090571;28;20348;-49
2022/09/28 02:36:27;;;;;;;0.50;0.50;;;9.40;99.90;;;;;;5088302;28;20672;-48
2022/09/28 02:38:56;;;;;;;0.97;0.50;;;9.40;99.90;;;;;;5081772;28;20218;-49
2022/09/28 02:41:32;;;;;;;0.60;0.60;;;9.40;99.90;;;;;;5083834;28;20229;-49
2022/09/28 02:44:16;;;;;;;0.60;0.60;;;9.30;99.90;;;;;;5092729;28;20606;-49
2022/09/28 02:46:52;;;;;;;1.27;0.60;;;9.40;99.90;;;;;;5090234;28;20246;-48
2022/09/28 02:49:27;;;;;;;1.23;0.60;;;9.40;99.90;;;;;;5092986;28;20276;-49
2022/09/28 02:52:13;;;;;;;1.90;0.50;;;9.30;99.90;;;;;;5093191;28;20198;-49
2022/09/28 02:55:06;;;;;;;0.30;0.30;;;9.30;99.90;;;;;;5092781;28;20293;-48
2022/09/28 02:57:45;;;;;;;1.33;0.50;;;9.40;99.90;;;;;;5084251;28;20272;-49
2022/09/28 03:00:17;;;;;;;0.50;0.50;;;9.40;99.90;;;;;;5072754;28;20230;-48
2022/09/28 03:02:54;;;;;;;0.50;0.50;;;9.40;99.90;;;;;;5088680;28;20750;-49
2022/09/28 03:05:29;;;;;;;0.77;0.77;;;9.30;99.90;;;;;;5087198;28;20198;-48
2022/09/28 03:08:00;;;;;;;0.90;0.90;;;9.30;99.90;;;;;;5091363;28;20321;-49
2022/09/28 03:10:35;;;;;;;2.30;1.30;;;9.30;99.90;;;;;;5092644;28;20202;-48
2022/09/28 03:13:04;;;;;;;0.83;0.83;;;9.30;99.90;;;;;;5092600;28;20202;-50
2022/09/28 03:15:34;;;;;;;0.97;0.97;;;9.30;99.90;;;;;;5090460;28;20670;-49
2022/09/28 03:18:01;;;;;;;1.60;0.90;;;9.30;99.90;;;;;;5089390;28;20198;-49
2022/09/28 03:20:30;;;;;;;2.20;1.13;;;9.30;99.90;;;;;;5092514;28;20278;-49
2022/09/28 03:22:57;;;;;;;1.53;0.80;;;9.20;99.90;;;;;;5092452;28;20206;-49
2022/09/28 03:25:24;;;;;;;0.70;0.70;;;9.30;99.90;;;;;;5088900;28;20202;-49
2022/09/28 03:27:51;;;;;;;1.00;1.00;;;9.30;99.90;;;;;;5087524;28;20666;-49
2022/09/28 03:30:18;;;;;;;2.00;1.90;;;9.30;99.90;;;;;;5086540;28;20704;-48
2022/09/28 03:32:47;;;;;;;1.03;0.93;;;9.20;99.90;;;;;;5090945;28;20630;-48
2022/09/28 03:35:14;;;;;;;1.83;1.73;;;9.30;99.90;;;;;;5083675;28;20211;-49
2022/09/28 03:37:41;;;;;;;1.20;1.20;;;9.30;99.90;;;;;;5088079;28;20251;-48
2022/09/28 03:40:08;;;;;;;1.17;1.07;;;9.40;99.90;;;;;;5091922;28;20280;-48
2022/09/28 03:42:37;;;;;;;1.53;1.53;;;9.40;99.90;;;;;;5092345;28;20686;-49
2022/09/28 03:45:05;;;;;;;1.33;1.10;;;9.40;99.90;;;;;;5084060;28;20604;-49
2022/09/28 03:47:32;;;;;;;1.20;1.10;;;9.30;99.90;;;;;;5071988;28;20666;-49
2022/09/28 03:50:00;;;;;;;1.47;1.30;;;9.30;99.90;;;;;;5088847;28;20227;-48
2022/09/28 03:52:27;;;;;;;1.73;0.90;;;9.20;99.90;;;;;;5086923;28;20207;-48
2022/09/28 03:54:54;;;;;;;1.40;1.40;;;9.20;99.90;;;;;;5091932;28;20194;-49
2022/09/28 03:57:21;;;;;;;2.70;1.37;;;9.30;99.90;;;;;;5090525;28;20190;-49
2022/09/28 03:59:48;;;;;;;3.50;1.53;;;9.30;99.90;;;;;;5091770;28;20224;-48
2022/09/28 04:02:15;;;;;;;1.40;1.27;;;9.20;99.90;;;;;;5091916;28;20668;-49
2022/09/28 04:04:42;;;;;;;1.60;1.60;;;9.30;99.90;;;;;;5091658;28;20223;-48
2022/09/28 04:07:10;;;;;;;1.43;1.20;;;9.30;99.90;;;;;;5084663;28;20220;-48
2022/09/28 04:09:38;;;;;;;1.80;1.13;;;9.30;99.90;;;;;;5092819;28;20453;-48
2022/09/28 04:12:07;;;;;;;1.43;0.70;;;9.30;99.90;;;;;;5089719;28;20226;-49
2022/09/28 04:14:34;;;;;;;1.03;0.97;;;9.30;99.90;;;;;;5091232;28;20219;-48
2022/09/28 04:17:02;;;;;;;1.20;1.10;;;9.30;99.90;;;;;;5090272;28;20200;-49
2022/09/28 04:19:29;;;;;;;1.37;1.13;;;9.30;99.90;;;;;;5085166;28;20703;-48
2022/09/28 04:21:56;;;;;;;1.63;1.63;;;9.30;99.90;;;;;;5091298;28;20718;-48
2022/09/28 04:24:25;;;;;;;1.73;1.63;;;9.20;99.90;;;;;;5082545;28;20210;-48
2022/09/28 04:29:14;;;;;;;1.27;1.27;;;9.30;99.90;;;;;;5083323;28;20627;-49
2022/09/28 04:29:41;;;;;;;1.20;1.20;;;9.20;99.90;;;;;;5085013;28;20226;-49
2022/09/28 04:32:09;;;;;;;1.10;1.10;;;9.20;99.90;;;;;;5088144;28;20210;-49
2022/09/28 04:34:36;;;;;;;3.23;2.20;;;9.30;99.90;;;;;;5086892;28;20587;-49
2022/09/28 04:37:03;;;;;;;1.87;1.23;;;9.20;99.90;;;;;;5091461;28;20205;-48
2022/09/28 04:39:32;;;;;;;1.60;1.60;;;9.20;99.90;;;;;;5087333;28;20990;-48
2022/09/28 04:42:00;;;;;;;3.77;1.07;;;9.10;99.90;;;;;;5091354;28;20192;-48
2022/09/28 04:44:27;;;;;;;1.77;1.00;;;9.10;99.90;;;;;;5081511;28;20218;-48
2022/09/28 04:46:55;;;;;;;1.60;0.63;;;9.20;99.90;;;;;;5094447;28;20203;-48
2022/09/28 04:49:23;;;;;;;1.73;0.90;;;9.10;99.90;;;;;;5095377;28;20235;-49
2022/09/28 04:51:50;;;;;;;1.67;0.70;;;9.10;99.90;;;;;;5095507;28;20202;-48
2022/09/28 04:54:17;;;;;;;0.30;0.30;;;9.10;99.90;;;;;;5093478;28;20209;-48
2022/09/28 04:56:45;;;;;;;0.90;0.43;;;9.10;99.90;;;;;;5095071;28;20666;-49
2022/09/28 04:59:12;;;;;;;0.37;0.37;;;9.20;99.90;;;;;;5093536;28;20588;-49
2022/09/28 05:01:39;;;;;;;2.30;0.90;;;9.10;99.90;;;;;;5086352;28;20207;-49
2022/09/28 05:04:07;;;;;;;1.00;1.00;;;9.20;99.90;;;;;;5089304;28;20230;-49
2022/09/28 05:06:34;;;;;;;0.50;0.50;;;9.20;99.90;;;;;;5095048;28;20206;-49
2022/09/28 05:09:01;;;;;;;1.53;0.60;;;9.10;99.90;;;;;;5081169;28;20598;-49
2022/09/28 05:11:28;;;;;;;4.20;0.60;;;9.10;99.90;;;;;;5084646;28;20210;-48
2022/09/28 05:13:56;;;;;;;3.17;0.30;;;9.10;99.90;;;;;;5074660;28;20208;-49
2022/09/28 05:16:25;;;;;;;0.43;0.43;;;9.10;99.90;;;;;;5086246;28;20202;-50
2022/09/28 05:18:55;;;;;;;1.50;0.43;;;9.10;99.90;;;;;;5094792;28;20222;-48
2022/09/28 05:21:25;;;;;;;0.60;0.50;;;9.00;99.90;;;;;;5094648;28;20680;-49
2022/09/28 05:23:55;;;;;;;0.53;0.50;;;9.00;99.90;;;;;;5093824;28;20202;-48
2022/09/28 05:26:22;;;;;;;0.40;0.40;;;9.10;99.90;;;;;;5089434;28;20227;-49
2022/09/28 05:28:49;;;;;;;0.70;0.70;;;9.00;99.90;;;;;;5085558;28;20227;-48
2022/09/28 05:31:18;;;;;;;0.70;0.47;;;9.00;99.90;;;;;;5088762;28;20210;-48
2022/09/28 05:33:45;;;;;;;0.40;0.40;;;9.00;99.90;;;;;;5092019;28;20210;-49
2022/09/28 05:36:12;;;;;;;0.60;0.50;;;9.00;99.90;;;;;;5094682;28;20199;-50
2022/09/28 05:38:39;;;;;;;1.13;0.90;;;9.00;99.90;;;;;;5094499;28;20729;-48
2022/09/28 05:41:06;;;;;;;0.83;0.63;;;9.00;99.90;;;;;;5089238;28;20213;-48
2022/09/28 05:43:33;;;;;;;0.90;0.67;;;9.00;99.90;;;;;;5083876;28;20207;-49
2022/09/28 05:46:00;;;;;;;1.00;0.60;;;8.90;99.90;;;;;;5087858;28;20198;-48
2022/09/28 05:48:31;;;;;;;0.67;0.60;;;9.00;99.90;;;;;;5091548;28;20300;-49
2022/09/28 05:50:58;;;;;;;2.00;0.40;;;9.00;99.90;;;;;;5092782;28;20194;-48
2022/09/28 05:53:25;;;;;;;3.73;0.73;;;9.00;99.90;;;;;;5093928;28;20213;-49
2022/09/28 05:55:52;;;;;;;0.87;0.87;;;9.00;99.90;;;;;;5093073;28;20575;-48
2022/09/28 05:58:19;;;;;;;0.93;0.60;;;9.00;99.90;;;;;;5088104;28;20279;-48
2022/09/28 06:00:46;;;;;;;2.00;0.90;;;9.10;99.90;;;;;;5094200;28;20202;-49
2022/09/28 06:03:14;;;;;;;1.90;0.60;;;9.10;99.90;;;;;;5093859;28;20260;-49
2022/09/28 06:05:42;;;;;;;2.33;1.23;;;9.00;99.90;;;;;;5086282;28;20207;-49
2022/09/28 06:08:10;;;;;;;2.33;1.73;;;9.10;99.90;;;;;;5093185;28;20240;-49
2022/09/28 06:10:37;;;;;;;1.53;1.43;;;9.00;99.90;;;;;;5083985;28;20667;-49
2022/09/28 06:13:05;;;;;;;0.60;0.50;;;9.00;99.90;;;;;;5093891;28;20202;-49
2022/09/28 06:15:33;;;;;;;2.27;0.50;;;9.00;99.90;;;;;;5085379;28;20209;-49
2022/09/28 06:18:02;;;;;;;0.67;0.50;;;9.10;99.90;;;;;;5091254;28;20252;-48
2022/09/28 06:20:31;;;;;;;0.50;0.50;;;9.10;99.90;;;;;;5084384;28;20209;-48
2022/09/28 06:23:00;;;;;;;1.07;0.60;;;9.10;99.90;;;;;;5084376;28;20258;-49
2022/09/28 06:25:27;;;;;;;0.43;0.43;;;9.10;99.90;;;;;;5088782;28;20203;-49
2022/09/28 06:27:55;;;;;;;1.43;0.60;;;9.10;99.90;;;;;;5082112;28;20292;-49
2022/09/28 06:30:25;;;;;;;0.50;0.50;;;9.10;99.90;;;;;;5087805;28;20255;-48
2022/09/28 06:32:54;;;;;;;0.50;0.50;;;9.10;99.90;;;;;;5093355;28;20636;-48
2022/09/28 06:35:22;;;;;;;2.17;0.40;;;9.10;99.90;;;;;;5091519;28;20203;-49
2022/09/28 06:37:49;;;;;;;1.20;1.20;;;9.20;99.90;;;;;;5084722;28;20200;-49
2022/09/28 06:40:18;;;;;;;1.60;1.13;;;9.20;99.90;;;;;;5076460;28;20300;-49
2022/09/28 06:42:54;;;;;;;0.20;0.20;;;9.20;99.90;;;;;;5087478;28;20225;-49
2022/09/28 06:45:24;;;;;;;2.10;0.30;;;9.20;99.90;;;;;;5093080;28;20672;-49
2022/09/28 06:47:56;;;;;;;0.87;0.87;;;9.20;99.90;;;;;;5088573;28;20204;-48
2022/09/28 06:50:23;;;;;;;0.50;0.40;;;9.30;99.90;;;;;;5077269;28;20210;-49
2022/09/28 06:52:52;;;;;;;0.30;0.30;;;9.30;99.90;;;;;;5091325;28;20202;-49
2022/09/28 06:55:22;;;;;;;2.20;0.20;;;9.30;99.90;;;;;;5093021;28;20200;-49
2022/09/28 06:57:58;;;;;;;0.50;0.43;;;9.30;99.90;;;;;;5080474;28;20280;-49
2022/09/28 07:00:25;;;;;;;0.70;0.60;;;9.30;99.90;;;;;;5072478;28;20295;-49
2022/09/28 07:02:52;;;;;;;1.53;0.73;;;9.40;99.90;;;;;;5083635;28;20279;-49
2022/09/28 07:05:23;;;;;;;0.30;0.30;;;9.40;99.90;;;;;;5083707;28;20251;-50
2022/09/28 07:07:50;;;;;;;0.70;0.40;;;9.40;99.90;;;;;;5092834;28;20184;-48
2022/09/28 07:10:19;;;;;;;0.57;0.53;;;9.40;99.90;;;;;;5088891;28;20218;-49
2022/09/28 07:12:47;;;;;;;0.60;0.60;;;9.40;99.90;;;;;;5083516;28;20218;-49
2022/09/28 07:15:14;;;;;;;0.40;0.40;;;9.40;99.90;;;;;;5087283;28;20229;-49
2022/09/28 07:17:41;;;;;;;0.83;0.37;;;9.40;99.90;;;;;;5092586;28;20627;-49
2022/09/28 07:20:09;;;;;;;0.67;0.67;;;9.40;99.90;;;;;;5090714;28;20779;-48
2022/09/28 07:22:37;;;;;;;0.57;0.40;;;9.40;99.90;;;;;;5091681;28;20233;-48
2022/09/28 07:25:06;;;;;;;0.73;0.60;;;9.50;99.90;;;;;;5092377;28;20249;-49
2022/09/28 07:27:33;;;;;;;0.60;0.60;;;9.50;99.90;;;;;;5092379;28;20209;-49
2022/09/28 07:30:01;;;;;;;0.57;0.40;;;9.50;99.90;;;;;;5083268;28;20222;-50
2022/09/28 07:32:28;;;;;;;0.33;0.30;;;9.50;99.90;;;;;;5089873;28;20877;-48
2022/09/28 07:34:55;;;;;;;0.87;0.27;;;9.50;99.90;;;;;;5092142;28;20284;-48
2022/09/28 07:37:23;;;;;;;0.40;0.40;;;9.40;99.90;;;;;;5089951;28;20257;-49
2022/09/28 07:42:35;;;;;;;0.30;0.30;;;9.40;99.90;;;;;;5092371;28;20689;-49
2022/09/28 07:45:05;;;;;;;1.57;0.50;;;9.40;99.90;;;;;;5092141;28;20230;-48
2022/09/28 07:47:32;;;;;;;1.57;0.53;;;9.40;99.90;;;;;;5090181;28;20817;-49
2022/09/28 07:49:59;;;;;;;1.90;0.50;;;9.50;99.90;;;;;;5071680;28;20280;-49
2022/09/28 07:52:27;;;;;;;0.37;0.37;;;9.50;99.90;;;;;;5072053;28;20260;-49
2022/09/28 07:54:55;;;;;;;0.77;0.40;;;9.50;99.90;;;;;;5074170;28;20195;-49
2022/09/28 07:57:23;;;;;;;0.67;0.40;;;9.50;99.90;;;;;;5089497;28;20239;-48
2022/09/28 07:59:52;;;;;;;3.17;0.30;;;9.50;99.90;;;;;;5091771;28;20260;-50
2022/09/28 08:02:21;;;;;;;2.47;0.70;;;9.60;99.90;;;;;;5091943;28;20673;-49
2022/09/28 08:04:48;;;;;;;1.57;0.50;;;9.60;99.90;;;;;;5087770;28;20217;-49
2022/09/28 08:07:16;;;;;;;0.70;0.70;;;9.60;99.90;;;;;;5071929;28;20205;-50
2022/09/28 08:09:43;;;;;;;1.43;0.77;;;9.60;99.90;;;;;;5071546;28;20231;-49
2022/09/28 08:12:11;;;;;;;2.60;0.60;;;9.60;99.90;;;;;;5075813;28;20239;-49
2022/09/28 08:14:39;;;;;;;0.60;0.50;;;9.50;99.90;;;;;;5087478;28;20290;-49
2022/09/28 08:17:07;;;;;;;1.73;0.60;;;9.50;99.90;;;;;;5091655;28;20286;-50
2022/09/28 08:22:18;;;;;;;1.07;0.70;;;9.60;99.90;;;;;;5083537;28;20221;-49
2022/09/28 08:24:45;;;;;;;2.00;1.13;;;9.60;99.90;;;;;;5071205;28;20303;-48
2022/09/28 08:27:12;;;;;;;0.40;0.40;;;9.70;99.90;;;;;;5071774;28;20205;-49
2022/09/28 08:29:39;;;;;;;1.30;1.00;;;9.80;99.90;;;;;;5079310;28;20301;-49
2022/09/28 08:32:07;;;;;;;0.73;0.73;;;9.70;99.90;;;;;;5091501;28;20249;-48
2022/09/28 08:34:37;;;;;;;1.47;0.40;;;9.80;99.90;;;;;;5091466;28;20288;-49
2022/09/28 08:37:04;;;;;;;1.53;0.33;;;9.80;99.90;;;;;;5091822;28;20211;-48
2022/09/28 08:39:33;;;;;;;0.20;0.20;;;9.80;99.90;;;;;;5081605;28;20222;-49
2022/09/28 08:42:15;;;;;;;6.53;1.33;;;9.80;99.90;;;;;;5071347;28;20687;-49
2022/09/28 08:44:45;;;;;;;0.80;0.80;;;9.90;99.90;;;;;;5070633;28;20203;-48
2022/09/28 08:50:02;;;;;;;1.03;0.40;;;9.90;99.90;;;;;;5081221;28;20345;-48
2022/09/28 08:52:35;;;;;;;1.00;0.70;;;9.90;99.90;;;;;;5091593;28;20583;-49
2022/09/28 08:55:07;;;;;;;1.80;0.50;;;9.90;99.90;;;;;;5091324;28;20206;-48
2022/09/28 08:57:40;;;;;;;0.53;0.53;;;10.00;99.90;;;;;;5072570;28;20265;-49
2022/09/28 09:00:19;;;;;;;1.27;1.20;;;10.00;99.90;;;;;;5071284;28;20366;-49
2022/09/28 09:02:46;;;;;;;3.20;1.07;;;9.90;99.90;;;;;;5077206;28;20211;-49
2022/09/28 09:05:18;;;;;;;0.73;0.73;;;9.80;99.90;;;;;;5087187;28;20202;-48
2022/09/28 09:08:08;;;;;;;0.70;0.70;;;9.90;99.90;;;;;;5091368;28;20216;-48
2022/09/28 09:10:47;;;;;;;0.80;0.77;;;9.80;99.90;;;;;;5091288;28;20270;-48
2022/09/28 09:13:43;;;;;;;4.77;0.70;;;9.90;99.90;;;;;;5083458;28;20207;-50
2022/09/28 09:16:20;;;;;;;1.20;1.10;;;9.90;99.90;;;;;;5071076;28;20328;-50
2022/09/28 09:18:53;;;;;;;1.23;1.17;;;9.80;99.90;;;;;;5071805;28;20788;-49
2022/09/28 09:21:38;;;;;;;2.40;0.67;;;9.80;99.90;;;;;;5091203;28;20717;-48
2022/09/28 09:24:20;;;;;;;0.87;0.87;;;9.90;99.90;;;;;;5091183;28;20258;-48
2022/09/28 09:26:51;;;;;;;0.40;0.40;;;10.00;99.90;;;;;;5092621;28;20211;-49
2022/09/28 09:29:32;;;;;;;0.60;0.60;;;10.00;99.90;;;;;;5094240;28;20271;-49
2022/09/28 09:32:15;;;;;;;0.30;0.30;;;10.00;99.90;;;;;;5074448;28;20668;-48
2022/09/28 09:35:04;;;;;;;1.60;0.50;;;10.10;99.90;;;;;;5074139;28;20293;-48
2022/09/28 09:37:59;;;;;;;0.87;0.87;;;10.10;99.90;;;;;;5090306;28;20749;-49
2022/09/28 09:40:45;;;;;;;1.07;0.97;;;10.10;99.90;;;;;;5074440;28;20197;-48
2022/09/28 09:43:40;;;;;;;0.50;0.50;;;10.10;99.90;;;;;;5073989;28;20201;-49
2022/09/28 09:46:17;;;;;;;0.50;0.50;;;10.20;99.90;;;;;;5074413;28;20233;-49
2022/09/28 09:48:51;;;;;;;0.53;0.53;;;10.20;99.90;;;;;;5093865;28;20228;-48
2022/09/28 09:51:24;;;;;;;1.23;0.70;;;10.20;99.90;;;;;;5093127;28;20222;-49
2022/09/28 09:53:58;;;;;;;2.13;1.93;;;10.20;99.90;;;;;;5094096;28;20260;-49
2022/09/28 09:56:33;;;;;;;0.80;0.80;;;10.20;99.90;;;;;;5094530;28;20255;-48
2022/09/28 09:59:06;;;;;;;2.20;1.47;;;10.30;99.90;;;;;;5094197;28;20590;-49
2022/09/28 10:01:37;;;;;;;3.07;1.77;;;10.30;99.90;;;;;;5094321;28;20205;-48
2022/09/28 10:04:12;;;;;;;1.90;1.67;;;10.30;99.90;;;;;;5087314;28;20216;-48
2022/09/28 10:06:42;;;;;;;1.43;1.33;;;10.30;99.90;;;;;;5074053;28;20257;-48
2022/09/28 10:09:16;;;;;;;2.30;2.20;;;10.40;99.90;;;;;;5072979;28;20258;-49
2022/09/28 10:11:47;;;;;;;1.40;1.33;;;10.40;99.90;;;;;;5091403;28;20198;-49
2022/09/28 10:14:18;;;;;;;1.33;1.20;;;10.40;99.90;;;;;;5093655;28;20293;-49
2022/09/28 10:16:47;;;;;;;1.90;1.80;;;10.40;99.90;;;;;;5094134;28;20197;-50
2022/09/28 10:19:16;;;;;;;2.60;2.40;;;10.50;99.90;;;;;;5093662;28;20261;-49
2022/09/28 10:21:45;;;;;;;2.10;2.00;;;10.50;99.90;;;;;;5081831;28;20288;-48
2022/09/28 10:24:19;;;;;;;4.10;2.67;;;10.50;99.90;;;;;;5073341;28;20211;-48
2022/09/28 10:26:50;;;;;;;1.43;1.33;;;10.50;99.90;;;;;;5079715;28;20201;-48
2022/09/28 10:29:21;;;;;;;0.90;0.90;;;10.50;99.90;;;;;;5093032;28;20305;-48
2022/09/28 10:31:49;;;;;;;0.87;0.87;;;10.50;99.90;;;;;;5093649;28;20270;-49
2022/09/28 10:34:18;;;;;;;1.53;1.17;;;10.50;99.90;;;;;;5093301;28;20260;-49
2022/09/28 10:36:58;;;;;;;1.23;0.70;;;10.50;99.90;;;;;;5093179;28;20623;-48
2022/09/28 10:39:33;;;;;;;1.80;1.07;;;10.60;99.90;;;;;;5075765;28;20265;-49
2022/09/28 10:42:03;;;;;;;1.63;1.27;;;10.60;99.90;;;;;;5091592;28;20284;-49
2022/09/28 10:44:32;;;;;;;0.80;0.80;;;10.70;99.90;;;;;;5088430;28;20233;-49
2022/09/28 10:47:01;;;;;;;1.10;1.00;;;10.80;99.90;;;;;;5093103;28;20253;-49
2022/09/28 10:49:31;;;;;;;1.37;1.30;;;10.80;99.90;;;;;;5091341;28;20234;-49
2022/09/28 10:51:57;;;;;;;0.70;0.57;;;10.90;99.90;;;;;;5093274;28;20252;-49
2022/09/28 10:54:26;;;;;;;1.00;0.57;;;10.90;99.90;;;;;;5092087;28;20247;-48
2022/09/28 10:56:57;;;;;;;0.67;0.67;;;11.00;99.90;;;;;;5072691;28;20207;-48
2022/09/28 10:59:36;;;;;;;0.77;0.47;;;11.00;99.90;;;;;;5072382;28;20226;-49
2022/09/28 11:02:14;;;;;;;0.63;0.63;;;10.90;99.90;;;;;;5091614;28;20203;-48
2022/09/28 11:04:43;;;;;;;1.03;0.77;;;11.00;99.90;;;;;;5082905;28;20208;-49
2022/09/28 11:07:17;;;;;;;3.17;0.80;;;11.10;99.90;;;;;;5093000;28;20203;-48
2022/09/28 11:09:47;;;;;;;1.53;1.27;;;11.10;99.90;;;;;;5092718;28;20229;-49
2022/09/28 11:12:19;;;;;;;1.13;0.70;;;11.10;99.90;;;;;;5091576;28;20204;-49
2022/09/28 11:14:51;;;;;;;0.80;0.80;;;11.10;99.90;;;;;;5092593;28;20202;-49
2022/09/28 11:17:26;;;;;;;1.13;0.83;;;11.10;99.90;;;;;;5088766;28;20215;-48
2022/09/28 11:19:54;;;;;;;0.60;0.60;;;11.10;99.90;;;;;;5091563;28;20590;-49
2022/09/28 11:22:23;;;;;;;1.03;0.70;;;11.10;99.90;;;;;;5092650;28;20199;-50
2022/09/28 11:24:50;;;;;;;2.53;0.63;;;11.10;99.90;;;;;;5092345;28;20198;-49
2022/09/28 11:27:24;;;;;;;1.53;0.80;;;11.10;99.90;;;;;;5092669;28;20277;-49
2022/09/28 11:29:58;;;;;;;0.80;0.80;;;11.20;99.90;;;;;;5079568;28;20312;-49
2022/09/28 11:32:30;;;;;;;1.60;1.10;;;11.20;99.90;;;;;;5072246;28;20203;-49
2022/09/28 11:34:59;;;;;;;1.33;1.20;;;11.30;99.90;;;;;;5082675;28;20246;-48
2022/09/28 11:37:47;;;;;;;0.97;0.97;;;11.20;99.90;;;;;;5092173;28;20207;-48
2022/09/28 11:40:28;;;;;;;1.70;0.70;;;11.20;99.90;;;;;;5092366;28;20227;-50
2022/09/28 11:43:07;;;;;;;1.30;1.00;;;11.30;99.90;;;;;;5092215;28;20222;-49
2022/09/28 11:45:48;;;;;;;0.97;0.97;;;11.30;99.90;;;;;;5089844;28;20777;-49
2022/09/28 11:48:18;;;;;;;0.97;0.97;;;11.30;99.90;;;;;;5071698;28;20257;-49
2022/09/28 11:50:49;;;;;;;1.70;1.50;;;11.30;99.90;;;;;;5088880;28;20222;-49
2022/09/28 11:53:23;;;;;;;0.87;0.87;;;11.40;99.90;;;;;;5092021;28;20202;-49
2022/09/28 11:55:57;;;;;;;1.03;0.67;;;11.40;99.90;;;;;;5092117;28;20297;-48
2022/09/28 11:58:33;;;;;;;2.13;0.90;;;11.40;99.90;;;;;;5091931;28;20226;-48
2022/09/28 12:01:07;;;;;;;1.27;0.50;;;11.40;99.90;;;;;;5092257;28;20198;-49
2022/09/28 12:03:40;;;;;;;2.47;0.77;;;11.50;99.90;;;;;;5080697;28;20338;-49
2022/09/28 12:06:14;;;;;;;0.50;0.50;;;11.60;99.90;;;;;;5084287;28;20286;-48
2022/09/28 12:08:46;;;;;;;1.63;0.60;;;11.60;99.90;;;;;;5091807;28;20234;-48
2022/09/28 12:11:20;;;;;;;0.70;0.70;;;11.50;99.90;;;;;;5091796;28;20223;-50
2022/09/28 12:13:51;;;;;;;0.90;0.77;;;11.60;99.90;;;;;;5091850;28;20204;-48
2022/09/28 12:16:24;;;;;;;0.70;0.70;;;11.70;99.90;;;;;;5091925;28;20289;-49
2022/09/28 12:18:57;;;;;;;1.03;0.73;;;11.80;99.90;;;;;;5091701;28;20716;-49
2022/09/28 12:21:43;;;;;;;1.23;0.70;;;11.80;99.90;;;;;;5087079;28;20204;-48
2022/09/28 12:24:17;;;;;;;0.73;0.73;;;11.80;99.90;;;;;;5084604;28;20197;-49
2022/09/28 12:26:49;;;;;;;2.20;0.90;;;11.90;99.90;;;;;;5091770;28;20211;-48
2022/09/28 12:29:22;;;;;;;0.50;0.50;;;12.00;99.90;;;;;;5091139;28;20226;-49
2022/09/28 12:31:59;;;;;;;1.33;0.70;;;11.90;99.90;;;;;;5091687;28;20250;-48
2022/09/28 12:34:26;;;;;;;0.70;0.70;;;11.90;99.90;;;;;;5091480;28;20256;-48
2022/09/28 12:37:19;;;;;;;1.27;0.80;;;12.00;99.90;;;;;;5086552;28;20200;-49
2022/09/28 12:39:59;;;;;;;1.83;1.73;;;11.90;99.90;;;;;;5091222;28;20218;-48
2022/09/28 12:42:43;;;;;;;3.87;2.03;;;11.90;99.90;;;;;;5091672;28;20210;-48
2022/09/28 12:45:27;;;;;;;3.23;1.20;;;11.90;99.90;;;;;;5091342;28;20233;-49
2022/09/28 12:48:18;;;;;;;2.30;2.30;;;12.00;99.90;;;;;;5091744;28;20232;-49
2022/09/28 12:50:54;;;;;;;1.67;1.57;;;12.00;99.90;;;;;;5082307;28;20590;-49
2022/09/28 12:53:58;;;;;;;1.43;0.80;;;12.10;99.90;;;;;;5090779;28;20256;-49
2022/09/28 12:56:33;;;;;;;1.00;0.80;;;12.10;99.90;;;;;;5071250;28;20673;-49
2022/09/28 12:59:15;;;;;;;1.00;0.90;;;12.20;99.90;;;;;;5071167;28;20661;-49
2022/09/28 13:02:05;;;;;;;0.67;0.67;;;12.30;99.90;;;;;;5074095;28;20205;-49
2022/09/28 13:04:48;;;;;;;1.13;0.60;;;12.50;99.90;;;;;;5083549;28;20662;-48
2022/09/28 13:07:24;;;;;;;0.23;0.20;;;12.40;99.90;;;;;;5088764;28;20241;-48
2022/09/28 13:10:03;;;;;;;0.83;0.43;;;12.10;99.90;;;;;;5095095;28;20224;-48
2022/09/28 13:12:41;;;;;;;0.60;0.60;;;12.00;99.90;;;;;;5076546;28;20730;-49
2022/09/28 13:15:41;;;;;;;1.90;1.87;;;12.00;99.90;;;;;;5074820;28;20205;-49
2022/09/28 13:18:17;;;;;;;0.60;0.60;;;12.00;99.90;;;;;;5074822;28;20617;-49
2022/09/28 13:21:08;;;;;;;1.73;1.50;;;12.10;99.90;;;;;;5074097;28;20230;-49
2022/09/28 13:23:41;;;;;;;0.63;0.60;;;12.00;99.90;;;;;;5090111;28;20733;-48
2022/09/28 13:26:19;;;;;;;2.17;1.00;;;12.10;99.90;;;;;;5087519;28;20572;-49